sensor_id;sensor_type;location;lat;lon;timestamp;P1;P2;P0
64114;PMS5003;62188;35.640;139.748;2023-08-21T00:00:49;0;0;
64114;PMS5003;62188;35.640;139.748;2023-08-21T00:03:15;3;3;
64114;PMS5003;62188;35.640;139.748;2023-08-21T00:05:40;1;0;
64114;PMS5003;62188;35.640;139.748;2023-08-21T00:08:05;1;1;
64114;PMS5003;62188;35.640;139.748;2023-08-21T00:10:30;0;0;
64114;PMS5003;62188;35.640;139.748;2023-08-21T00:12:55;3;3;
64114;PMS5003;62188;35.640;139.748;2023-08-21T00:15:21;1;1;
64114;PMS5003;62188;35.640;139.748;2023-08-21T00:17:46;0;0;
64114;PMS5003;62188;35.640;139.748;2023-08-21T00:20:12;1;1;
64114;PMS5003;62188;35.640;139.748;2023-08-21T00:22:36;1;1;
64114;PMS5003;62188;35.640;139.748;2023-08-21T00:25:02;1;1;
64114;PMS5003;62188;35.640;139.748;2023-08-21T00:27:27;1;1;
64114;PMS5003;62188;35.640;139.748;2023-08-21T00:29:52;1;0;
64114;PMS5003;62188;35.640;139.748;2023-08-21T00:32:17;1;1;
64114;PMS5003;62188;35.640;139.748;2023-08-21T00:34:43;1;1;
64114;PMS5003;62188;35.640;139.748;2023-08-21T00:37:08;0;0;
64114;PMS5003;62188;35.640;139.748;2023-08-21T00:39:33;3;1;
64114;PMS5003;62188;35.640;139.748;2023-08-21T00:41:58;0;0;
64114;PMS5003;62188;35.640;139.748;2023-08-21T00:44:23;1;1;
64114;PMS5003;62188;35.640;139.748;2023-08-21T00:46:49;2;2;
64114;PMS5003;62188;35.640;139.748;2023-08-21T00:49:14;1;1;
64114;PMS5003;62188;35.640;139.748;2023-08-21T00:51:39;3;2;
64114;PMS5003;62188;35.640;139.748;2023-08-21T00:54:05;3;3;
64114;PMS5003;62188;35.640;139.748;2023-08-21T00:56:29;4;4;
64114;PMS5003;62188;35.640;139.748;2023-08-21T00:58:54;4;4;
64114;PMS5003;62188;35.640;139.748;2023-08-21T01:01:20;6;5;
64114;PMS5003;62188;35.640;139.748;2023-08-21T01:03:45;4;4;
64114;PMS5003;62188;35.640;139.748;2023-08-21T01:06:10;6;6;
64114;PMS5003;62188;35.640;139.748;2023-08-21T01:08:38;5;5;
64114;PMS5003;62188;35.640;139.748;2023-08-21T01:11:03;5;5;
64114;PMS5003;62188;35.640;139.748;2023-08-21T01:13:30;7;7;
64114;PMS5003;62188;35.640;139.748;2023-08-21T01:15:51;6;5;
64114;PMS5003;62188;35.640;139.748;2023-08-21T01:18:16;6;6;
64114;PMS5003;62188;35.640;139.748;2023-08-21T01:20:42;6;6;
64114;PMS5003;62188;35.640;139.748;2023-08-21T01:23:07;6;5;
64114;PMS5003;62188;35.640;139.748;2023-08-21T01:25:32;6;6;
64114;PMS5003;62188;35.640;139.748;2023-08-21T01:27:58;9;8;
64114;PMS5003;62188;35.640;139.748;2023-08-21T01:30:23;6;6;
64114;PMS5003;62188;35.640;139.748;2023-08-21T01:32:50;10;9;
64114;PMS5003;62188;35.640;139.748;2023-08-21T01:35:13;9;9;
64114;PMS5003;62188;35.640;139.748;2023-08-21T01:37:38;9;8;
64114;PMS5003;62188;35.640;139.748;2023-08-21T01:40:04;8;8;
64114;PMS5003;62188;35.640;139.748;2023-08-21T01:42:29;8;8;
64114;PMS5003;62188;35.640;139.748;2023-08-21T01:44:54;11;9;
64114;PMS5003;62188;35.640;139.748;2023-08-21T01:47:20;8;8;
64114;PMS5003;62188;35.640;139.748;2023-08-21T01:49:44;9;9;
64114;PMS5003;62188;35.640;139.748;2023-08-21T01:52:10;9;9;
64114;PMS5003;62188;35.640;139.748;2023-08-21T01:54:35;10;10;
64114;PMS5003;62188;35.640;139.748;2023-08-21T01:57:00;12;12;
64114;PMS5003;62188;35.640;139.748;2023-08-21T01:59:25;11;11;
64114;PMS5003;62188;35.640;139.748;2023-08-21T02:01:51;10;10;
64114;PMS5003;62188;35.640;139.748;2023-08-21T02:04:16;13;11;
64114;PMS5003;62188;35.640;139.748;2023-08-21T02:06:41;14;14;
64114;PMS5003;62188;35.640;139.748;2023-08-21T02:09:06;16;14;
64114;PMS5003;62188;35.640;139.748;2023-08-21T02:11:31;17;14;
64114;PMS5003;62188;35.640;139.748;2023-08-21T02:13:57;16;14;
64114;PMS5003;62188;35.640;139.748;2023-08-21T02:16:23;17;17;
64114;PMS5003;62188;35.640;139.748;2023-08-21T02:18:48;12;12;
64114;PMS5003;62188;35.640;139.748;2023-08-21T02:21:14;16;15;
64114;PMS5003;62188;35.640;139.748;2023-08-21T02:23:39;13;13;
64114;PMS5003;62188;35.640;139.748;2023-08-21T02:26:04;14;14;
64114;PMS5003;62188;35.640;139.748;2023-08-21T02:28:29;15;15;
64114;PMS5003;62188;35.640;139.748;2023-08-21T02:30:55;13;13;
64114;PMS5003;62188;35.640;139.748;2023-08-21T02:33:20;13;12;
64114;PMS5003;62188;35.640;139.748;2023-08-21T02:35:45;14;14;
64114;PMS5003;62188;35.640;139.748;2023-08-21T02:38:10;11;11;
64114;PMS5003;62188;35.640;139.748;2023-08-21T02:40:35;13;13;
64114;PMS5003;62188;35.640;139.748;2023-08-21T02:43:01;11;11;
64114;PMS5003;62188;35.640;139.748;2023-08-21T02:45:26;13;13;
64114;PMS5003;62188;35.640;139.748;2023-08-21T02:47:52;13;13;
64114;PMS5003;62188;35.640;139.748;2023-08-21T02:50:16;11;11;
64114;PMS5003;62188;35.640;139.748;2023-08-21T02:52:42;11;10;
64114;PMS5003;62188;35.640;139.748;2023-08-21T02:55:07;13;12;
64114;PMS5003;62188;35.640;139.748;2023-08-21T02:57:32;11;11;
64114;PMS5003;62188;35.640;139.748;2023-08-21T02:59:57;11;11;
64114;PMS5003;62188;35.640;139.748;2023-08-21T03:02:23;9;9;
64114;PMS5003;62188;35.640;139.748;2023-08-21T03:04:48;9;9;
64114;PMS5003;62188;35.640;139.748;2023-08-21T03:07:13;9;9;
64114;PMS5003;62188;35.640;139.748;2023-08-21T03:09:39;9;9;
64114;PMS5003;62188;35.640;139.748;2023-08-21T03:12:04;9;9;
64114;PMS5003;62188;35.640;139.748;2023-08-21T03:14:29;8;8;
64114;PMS5003;62188;35.640;139.748;2023-08-21T03:16:54;9;9;
64114;PMS5003;62188;35.640;139.748;2023-08-21T03:19:19;8;8;
64114;PMS5003;62188;35.640;139.748;2023-08-21T03:21:44;7;6;
64114;PMS5003;62188;35.640;139.748;2023-08-21T03:24:10;6;6;
64114;PMS5003;62188;35.640;139.748;2023-08-21T03:26:35;8;8;
64114;PMS5003;62188;35.640;139.748;2023-08-21T03:29:00;9;9;
64114;PMS5003;62188;35.640;139.748;2023-08-21T03:31:25;7;7;
64114;PMS5003;62188;35.640;139.748;2023-08-21T03:33:50;6;6;
64114;PMS5003;62188;35.640;139.748;2023-08-21T03:36:16;6;6;
64114;PMS5003;62188;35.640;139.748;2023-08-21T03:38:41;6;6;
64114;PMS5003;62188;35.640;139.748;2023-08-21T03:41:06;8;7;
64114;PMS5003;62188;35.640;139.748;2023-08-21T03:43:31;7;7;
64114;PMS5003;62188;35.640;139.748;2023-08-21T03:45:57;8;8;
64114;PMS5003;62188;35.640;139.748;2023-08-21T03:48:22;6;6;
64114;PMS5003;62188;35.640;139.748;2023-08-21T03:50:47;6;6;
64114;PMS5003;62188;35.640;139.748;2023-08-21T03:53:12;6;6;
64114;PMS5003;62188;35.640;139.748;2023-08-21T03:55:38;6;6;
64114;PMS5003;62188;35.640;139.748;2023-08-21T03:58:03;7;7;
64114;PMS5003;62188;35.640;139.748;2023-08-21T04:00:28;8;8;
64114;PMS5003;62188;35.640;139.748;2023-08-21T04:02:53;8;7;
64114;PMS5003;62188;35.640;139.748;2023-08-21T04:05:19;5;5;
64114;PMS5003;62188;35.640;139.748;2023-08-21T04:07:44;5;5;
64114;PMS5003;62188;35.640;139.748;2023-08-21T04:10:09;6;5;
64114;PMS5003;62188;35.640;139.748;2023-08-21T04:12:34;6;6;
64114;PMS5003;62188;35.640;139.748;2023-08-21T04:14:59;5;5;
64114;PMS5003;62188;35.640;139.748;2023-08-21T04:17:25;5;5;
64114;PMS5003;62188;35.640;139.748;2023-08-21T04:19:50;4;4;
64114;PMS5003;62188;35.640;139.748;2023-08-21T04:22:15;5;5;
64114;PMS5003;62188;35.640;139.748;2023-08-21T04:24:40;5;5;
64114;PMS5003;62188;35.640;139.748;2023-08-21T04:27:06;5;4;
64114;PMS5003;62188;35.640;139.748;2023-08-21T04:29:31;5;5;
64114;PMS5003;62188;35.640;139.748;2023-08-21T04:31:56;4;4;
64114;PMS5003;62188;35.640;139.748;2023-08-21T04:34:21;3;3;
64114;PMS5003;62188;35.640;139.748;2023-08-21T04:36:46;2;2;
64114;PMS5003;62188;35.640;139.748;2023-08-21T04:39:11;2;2;
64114;PMS5003;62188;35.640;139.748;2023-08-21T04:41:37;2;2;
64114;PMS5003;62188;35.640;139.748;2023-08-21T04:44:02;2;2;
64114;PMS5003;62188;35.640;139.748;2023-08-21T04:46:27;2;2;
64114;PMS5003;62188;35.640;139.748;2023-08-21T04:48:52;2;1;
64114;PMS5003;62188;35.640;139.748;2023-08-21T04:51:17;2;2;
64114;PMS5003;62188;35.640;139.748;2023-08-21T04:53:43;1;1;
64114;PMS5003;62188;35.640;139.748;2023-08-21T04:56:08;2;2;
64114;PMS5003;62188;35.640;139.748;2023-08-21T04:58:33;1;1;
64114;PMS5003;62188;35.640;139.748;2023-08-21T05:00:58;1;1;
64114;PMS5003;62188;35.640;139.748;2023-08-21T05:03:23;1;1;
64114;PMS5003;62188;35.640;139.748;2023-08-21T05:05:54;0;0;
64114;PMS5003;62188;35.640;139.748;2023-08-21T05:08:14;4;3;
64114;PMS5003;62188;35.640;139.748;2023-08-21T05:10:39;3;2;
64114;PMS5003;62188;35.640;139.748;2023-08-21T05:13:04;3;3;
64114;PMS5003;62188;35.640;139.748;2023-08-21T05:15:30;2;2;
64114;PMS5003;62188;35.640;139.748;2023-08-21T05:17:55;3;2;
64114;PMS5003;62188;35.640;139.748;2023-08-21T05:20:20;1;1;
64114;PMS5003;62188;35.640;139.748;2023-08-21T05:22:45;1;1;
64114;PMS5003;62188;35.640;139.748;2023-08-21T05:25:11;1;0;
64114;PMS5003;62188;35.640;139.748;2023-08-21T05:27:36;0;0;
64114;PMS5003;62188;35.640;139.748;2023-08-21T05:30:01;2;2;
64114;PMS5003;62188;35.640;139.748;2023-08-21T05:32:26;0;0;
64114;PMS5003;62188;35.640;139.748;2023-08-21T05:34:51;2;1;
64114;PMS5003;62188;35.640;139.748;2023-08-21T05:37:17;1;1;
64114;PMS5003;62188;35.640;139.748;2023-08-21T05:39:42;1;1;
64114;PMS5003;62188;35.640;139.748;2023-08-21T05:42:07;2;1;
64114;PMS5003;62188;35.640;139.748;2023-08-21T05:44:32;1;1;
64114;PMS5003;62188;35.640;139.748;2023-08-21T05:46:57;0;0;
64114;PMS5003;62188;35.640;139.748;2023-08-21T05:49:23;2;1;
64114;PMS5003;62188;35.640;139.748;2023-08-21T05:51:48;0;0;
64114;PMS5003;62188;35.640;139.748;2023-08-21T05:54:13;1;1;
64114;PMS5003;62188;35.640;139.748;2023-08-21T05:56:38;1;1;
64114;PMS5003;62188;35.640;139.748;2023-08-21T05:59:03;1;0;
64114;PMS5003;62188;35.640;139.748;2023-08-21T06:01:29;1;1;
64114;PMS5003;62188;35.640;139.748;2023-08-21T06:03:54;2;2;
64114;PMS5003;62188;35.640;139.748;2023-08-21T06:06:19;2;2;
64114;PMS5003;62188;35.640;139.748;2023-08-21T06:08:44;1;1;
64114;PMS5003;62188;35.640;139.748;2023-08-21T06:11:09;2;1;
64114;PMS5003;62188;35.640;139.748;2023-08-21T06:13:35;1;1;
64114;PMS5003;62188;35.640;139.748;2023-08-21T06:16:00;2;1;
64114;PMS5003;62188;35.640;139.748;2023-08-21T06:18:25;3;3;
64114;PMS5003;62188;35.640;139.748;2023-08-21T06:20:50;1;1;
64114;PMS5003;62188;35.640;139.748;2023-08-21T06:23:16;3;3;
64114;PMS5003;62188;35.640;139.748;2023-08-21T06:25:42;2;2;
64114;PMS5003;62188;35.640;139.748;2023-08-21T06:28:06;2;2;
64114;PMS5003;62188;35.640;139.748;2023-08-21T06:30:31;2;2;
64114;PMS5003;62188;35.640;139.748;2023-08-21T06:32:56;2;1;
64114;PMS5003;62188;35.640;139.748;2023-08-21T06:35:22;2;1;
64114;PMS5003;62188;35.640;139.748;2023-08-21T06:37:47;1;1;
64114;PMS5003;62188;35.640;139.748;2023-08-21T06:40:13;2;2;
64114;PMS5003;62188;35.640;139.748;2023-08-21T06:42:38;2;2;
64114;PMS5003;62188;35.640;139.748;2023-08-21T06:45:04;2;1;
64114;PMS5003;62188;35.640;139.748;2023-08-21T06:47:29;1;1;
64114;PMS5003;62188;35.640;139.748;2023-08-21T06:49:54;1;1;
64114;PMS5003;62188;35.640;139.748;2023-08-21T06:52:19;1;1;
64114;PMS5003;62188;35.640;139.748;2023-08-21T06:54:45;2;2;
64114;PMS5003;62188;35.640;139.748;2023-08-21T06:57:09;2;2;
64114;PMS5003;62188;35.640;139.748;2023-08-21T06:59:35;1;1;
64114;PMS5003;62188;35.640;139.748;2023-08-21T07:02:00;2;2;
64114;PMS5003;62188;35.640;139.748;2023-08-21T07:04:25;1;1;
64114;PMS5003;62188;35.640;139.748;2023-08-21T07:06:50;0;0;
64114;PMS5003;62188;35.640;139.748;2023-08-21T07:09:16;3;3;
64114;PMS5003;62188;35.640;139.748;2023-08-21T07:11:41;1;1;
64114;PMS5003;62188;35.640;139.748;2023-08-21T07:14:06;2;2;
64114;PMS5003;62188;35.640;139.748;2023-08-21T07:16:31;1;1;
64114;PMS5003;62188;35.640;139.748;2023-08-21T07:18:57;2;2;
64114;PMS5003;62188;35.640;139.748;2023-08-21T07:21:22;2;2;
64114;PMS5003;62188;35.640;139.748;2023-08-21T07:23:47;2;2;
64114;PMS5003;62188;35.640;139.748;2023-08-21T07:26:12;2;2;
64114;PMS5003;62188;35.640;139.748;2023-08-21T07:28:38;1;1;
64114;PMS5003;62188;35.640;139.748;2023-08-21T07:31:03;1;1;
64114;PMS5003;62188;35.640;139.748;2023-08-21T07:33:28;4;2;
64114;PMS5003;62188;35.640;139.748;2023-08-21T07:35:59;2;2;
64114;PMS5003;62188;35.640;139.748;2023-08-21T07:38:18;3;2;
64114;PMS5003;62188;35.640;139.748;2023-08-21T07:40:44;2;2;
64114;PMS5003;62188;35.640;139.748;2023-08-21T07:43:09;3;2;
64114;PMS5003;62188;35.640;139.748;2023-08-21T07:45:36;1;1;
64114;PMS5003;62188;35.640;139.748;2023-08-21T07:47:59;2;2;
64114;PMS5003;62188;35.640;139.748;2023-08-21T07:50:24;2;1;
64114;PMS5003;62188;35.640;139.748;2023-08-21T07:52:50;1;1;
64114;PMS5003;62188;35.640;139.748;2023-08-21T07:55:15;2;2;
64114;PMS5003;62188;35.640;139.748;2023-08-21T07:57:40;2;2;
64114;PMS5003;62188;35.640;139.748;2023-08-21T08:00:06;1;1;
64114;PMS5003;62188;35.640;139.748;2023-08-21T08:02:31;2;2;
64114;PMS5003;62188;35.640;139.748;2023-08-21T08:04:56;2;1;
64114;PMS5003;62188;35.640;139.748;2023-08-21T08:07:21;0;0;
64114;PMS5003;62188;35.640;139.748;2023-08-21T08:09:47;0;0;
64114;PMS5003;62188;35.640;139.748;2023-08-21T08:12:12;1;1;
64114;PMS5003;62188;35.640;139.748;2023-08-21T08:14:37;0;0;
64114;PMS5003;62188;35.640;139.748;2023-08-21T08:17:02;1;1;
64114;PMS5003;62188;35.640;139.748;2023-08-21T08:19:28;1;0;
64114;PMS5003;62188;35.640;139.748;2023-08-21T08:21:53;1;1;
64114;PMS5003;62188;35.640;139.748;2023-08-21T08:24:18;1;1;
64114;PMS5003;62188;35.640;139.748;2023-08-21T08:26:43;2;2;
64114;PMS5003;62188;35.640;139.748;2023-08-21T08:29:08;1;1;
64114;PMS5003;62188;35.640;139.748;2023-08-21T08:31:34;0;0;
64114;PMS5003;62188;35.640;139.748;2023-08-21T08:33:59;0;0;
64114;PMS5003;62188;35.640;139.748;2023-08-21T08:36:24;1;1;
64114;PMS5003;62188;35.640;139.748;2023-08-21T08:38:49;1;0;
64114;PMS5003;62188;35.640;139.748;2023-08-21T08:41:16;2;1;
64114;PMS5003;62188;35.640;139.748;2023-08-21T08:43:40;2;1;
64114;PMS5003;62188;35.640;139.748;2023-08-21T08:46:06;1;0;
64114;PMS5003;62188;35.640;139.748;2023-08-21T08:48:30;1;1;
64114;PMS5003;62188;35.640;139.748;2023-08-21T08:50:55;1;1;
64114;PMS5003;62188;35.640;139.748;2023-08-21T08:53:21;1;1;
64114;PMS5003;62188;35.640;139.748;2023-08-21T08:55:46;1;1;
64114;PMS5003;62188;35.640;139.748;2023-08-21T08:58:11;1;1;
64114;PMS5003;62188;35.640;139.748;2023-08-21T09:00:36;1;1;
64114;PMS5003;62188;35.640;139.748;2023-08-21T09:03:02;1;1;
64114;PMS5003;62188;35.640;139.748;2023-08-21T09:05:27;2;1;
64114;PMS5003;62188;35.640;139.748;2023-08-21T09:10:18;1;1;
64114;PMS5003;62188;35.640;139.748;2023-08-21T09:12:45;2;2;
64114;PMS5003;62188;35.640;139.748;2023-08-21T09:15:09;1;1;
64114;PMS5003;62188;35.640;139.748;2023-08-21T09:17:34;2;1;
64114;PMS5003;62188;35.640;139.748;2023-08-21T09:20:03;1;1;
64114;PMS5003;62188;35.640;139.748;2023-08-21T09:22:24;2;2;
64114;PMS5003;62188;35.640;139.748;2023-08-21T09:27:16;1;1;
64114;PMS5003;62188;35.640;139.748;2023-08-21T09:29:40;3;1;
64114;PMS5003;62188;35.640;139.748;2023-08-21T09:32:05;2;1;
64114;PMS5003;62188;35.640;139.748;2023-08-21T09:34:33;3;1;
64114;PMS5003;62188;35.640;139.748;2023-08-21T09:36:56;1;1;
64114;PMS5003;62188;35.640;139.748;2023-08-21T09:39:21;1;0;
64114;PMS5003;62188;35.640;139.748;2023-08-21T09:44:12;2;2;
64114;PMS5003;62188;35.640;139.748;2023-08-21T09:46:37;1;1;
64114;PMS5003;62188;35.640;139.748;2023-08-21T09:49:02;2;1;
64114;PMS5003;62188;35.640;139.748;2023-08-21T09:51:27;2;2;
64114;PMS5003;62188;35.640;139.748;2023-08-21T09:53:52;2;1;
64114;PMS5003;62188;35.640;139.748;2023-08-21T09:56:18;0;0;
64114;PMS5003;62188;35.640;139.748;2023-08-21T09:58:43;1;1;
64114;PMS5003;62188;35.640;139.748;2023-08-21T10:01:08;2;1;
64114;PMS5003;62188;35.640;139.748;2023-08-21T10:03:33;2;2;
64114;PMS5003;62188;35.640;139.748;2023-08-21T10:05:59;2;2;
64114;PMS5003;62188;35.640;139.748;2023-08-21T10:08:24;4;2;
64114;PMS5003;62188;35.640;139.748;2023-08-21T10:10:49;4;3;
64114;PMS5003;62188;35.640;139.748;2023-08-21T10:13:14;3;3;
64114;PMS5003;62188;35.640;139.748;2023-08-21T10:15:39;3;3;
64114;PMS5003;62188;35.640;139.748;2023-08-21T10:20:30;2;2;
64114;PMS5003;62188;35.640;139.748;2023-08-21T10:23:00;2;1;
64114;PMS5003;62188;35.640;139.748;2023-08-21T10:25:21;2;2;
64114;PMS5003;62188;35.640;139.748;2023-08-21T10:27:46;2;2;
64114;PMS5003;62188;35.640;139.748;2023-08-21T10:30:13;2;2;
64114;PMS5003;62188;35.640;139.748;2023-08-21T10:32:38;1;1;
64114;PMS5003;62188;35.640;139.748;2023-08-21T10:35:01;3;3;
64114;PMS5003;62188;35.640;139.748;2023-08-21T10:37:27;4;4;
64114;PMS5003;62188;35.640;139.748;2023-08-21T10:39:55;2;2;
64114;PMS5003;62188;35.640;139.748;2023-08-21T10:42:17;3;3;
64114;PMS5003;62188;35.640;139.748;2023-08-21T10:44:47;2;2;
64114;PMS5003;62188;35.640;139.748;2023-08-21T10:47:13;3;3;
64114;PMS5003;62188;35.640;139.748;2023-08-21T10:49:33;3;2;
64114;PMS5003;62188;35.640;139.748;2023-08-21T10:51:58;3;3;
64114;PMS5003;62188;35.640;139.748;2023-08-21T10:54:23;4;4;
64114;PMS5003;62188;35.640;139.748;2023-08-21T10:56:49;1;1;
64114;PMS5003;62188;35.640;139.748;2023-08-21T10:59:14;1;1;
64114;PMS5003;62188;35.640;139.748;2023-08-21T11:01:43;4;4;
64114;PMS5003;62188;35.640;139.748;2023-08-21T11:04:04;6;4;
64114;PMS5003;62188;35.640;139.748;2023-08-21T11:06:29;3;2;
64114;PMS5003;62188;35.640;139.748;2023-08-21T11:08:55;2;2;
64114;PMS5003;62188;35.640;139.748;2023-08-21T11:11:20;1;1;
64114;PMS5003;62188;35.640;139.748;2023-08-21T11:16:10;1;1;
64114;PMS5003;62188;35.640;139.748;2023-08-21T11:18:36;3;2;
64114;PMS5003;62188;35.640;139.748;2023-08-21T11:21:05;2;2;
64114;PMS5003;62188;35.640;139.748;2023-08-21T11:23:31;1;1;
64114;PMS5003;62188;35.640;139.748;2023-08-21T11:25:52;2;2;
64114;PMS5003;62188;35.640;139.748;2023-08-21T11:28:17;1;1;
64114;PMS5003;62188;35.640;139.748;2023-08-21T11:30:43;0;0;
64114;PMS5003;62188;35.640;139.748;2023-08-21T11:33:07;2;1;
64114;PMS5003;62188;35.640;139.748;2023-08-21T11:35:33;1;1;
64114;PMS5003;62188;35.640;139.748;2023-08-21T11:37:58;0;0;
64114;PMS5003;62188;35.640;139.748;2023-08-21T11:40:23;2;2;
64114;PMS5003;62188;35.640;139.748;2023-08-21T11:42:51;2;1;
64114;PMS5003;62188;35.640;139.748;2023-08-21T11:45:13;1;1;
64114;PMS5003;62188;35.640;139.748;2023-08-21T11:47:39;2;2;
64114;PMS5003;62188;35.640;139.748;2023-08-21T11:50:04;1;1;
64114;PMS5003;62188;35.640;139.748;2023-08-21T11:52:29;2;2;
64114;PMS5003;62188;35.640;139.748;2023-08-21T11:54:55;1;1;
64114;PMS5003;62188;35.640;139.748;2023-08-21T11:57:20;3;2;
64114;PMS5003;62188;35.640;139.748;2023-08-21T11:59:49;2;2;
64114;PMS5003;62188;35.640;139.748;2023-08-21T12:02:13;1;1;
64114;PMS5003;62188;35.640;139.748;2023-08-21T12:04:35;1;1;
64114;PMS5003;62188;35.640;139.748;2023-08-21T12:07:01;3;2;
64114;PMS5003;62188;35.640;139.748;2023-08-21T12:09:26;3;2;
64114;PMS5003;62188;35.640;139.748;2023-08-21T12:11:51;2;2;
64114;PMS5003;62188;35.640;139.748;2023-08-21T12:14:16;2;2;
64114;PMS5003;62188;35.640;139.748;2023-08-21T12:16:42;1;1;
64114;PMS5003;62188;35.640;139.748;2023-08-21T12:19:07;2;2;
64114;PMS5003;62188;35.640;139.748;2023-08-21T12:21:32;1;1;
64114;PMS5003;62188;35.640;139.748;2023-08-21T12:23:58;2;2;
64114;PMS5003;62188;35.640;139.748;2023-08-21T12:26:23;3;3;
64114;PMS5003;62188;35.640;139.748;2023-08-21T12:28:49;4;3;
64114;PMS5003;62188;35.640;139.748;2023-08-21T12:31:13;2;2;
64114;PMS5003;62188;35.640;139.748;2023-08-21T12:33:38;3;2;
64114;PMS5003;62188;35.640;139.748;2023-08-21T12:36:04;2;2;
64114;PMS5003;62188;35.640;139.748;2023-08-21T12:38:29;1;1;
64114;PMS5003;62188;35.640;139.748;2023-08-21T12:40:55;2;2;
64114;PMS5003;62188;35.640;139.748;2023-08-21T12:43:20;2;1;
64114;PMS5003;62188;35.640;139.748;2023-08-21T12:45:45;3;2;
64114;PMS5003;62188;35.640;139.748;2023-08-21T12:48:10;1;1;
64114;PMS5003;62188;35.640;139.748;2023-08-21T12:50:36;1;1;
64114;PMS5003;62188;35.640;139.748;2023-08-21T12:53:01;3;3;
64114;PMS5003;62188;35.640;139.748;2023-08-21T12:55:26;3;3;
64114;PMS5003;62188;35.640;139.748;2023-08-21T12:57:51;3;2;
64114;PMS5003;62188;35.640;139.748;2023-08-21T13:00:17;2;2;
64114;PMS5003;62188;35.640;139.748;2023-08-21T13:02:42;4;2;
64114;PMS5003;62188;35.640;139.748;2023-08-21T13:05:08;2;2;
64114;PMS5003;62188;35.640;139.748;2023-08-21T13:07:33;2;1;
64114;PMS5003;62188;35.640;139.748;2023-08-21T13:09:58;4;3;
64114;PMS5003;62188;35.640;139.748;2023-08-21T13:12:23;3;3;
64114;PMS5003;62188;35.640;139.748;2023-08-21T13:14:49;5;4;
64114;PMS5003;62188;35.640;139.748;2023-08-21T13:17:14;4;3;
64114;PMS5003;62188;35.640;139.748;2023-08-21T13:19:39;1;1;
64114;PMS5003;62188;35.640;139.748;2023-08-21T13:22:04;2;2;
64114;PMS5003;62188;35.640;139.748;2023-08-21T13:24:29;3;3;
64114;PMS5003;62188;35.640;139.748;2023-08-21T13:26:55;4;3;
64114;PMS5003;62188;35.640;139.748;2023-08-21T13:29:20;3;3;
64114;PMS5003;62188;35.640;139.748;2023-08-21T13:31:45;3;3;
64114;PMS5003;62188;35.640;139.748;2023-08-21T13:34:10;3;3;
64114;PMS5003;62188;35.640;139.748;2023-08-21T13:36:37;5;4;
64114;PMS5003;62188;35.640;139.748;2023-08-21T13:39:01;2;2;
64114;PMS5003;62188;35.640;139.748;2023-08-21T13:41:26;4;3;
64114;PMS5003;62188;35.640;139.748;2023-08-21T13:43:52;4;4;
64114;PMS5003;62188;35.640;139.748;2023-08-21T13:46:17;3;2;
64114;PMS5003;62188;35.640;139.748;2023-08-21T13:48:42;1;1;
64114;PMS5003;62188;35.640;139.748;2023-08-21T13:51:08;3;2;
64114;PMS5003;62188;35.640;139.748;2023-08-21T13:53:33;3;2;
64114;PMS5003;62188;35.640;139.748;2023-08-21T13:55:58;3;3;
64114;PMS5003;62188;35.640;139.748;2023-08-21T13:58:23;4;1;
64114;PMS5003;62188;35.640;139.748;2023-08-21T14:00:48;4;2;
64114;PMS5003;62188;35.640;139.748;2023-08-21T14:03:14;3;2;
64114;PMS5003;62188;35.640;139.748;2023-08-21T14:05:39;3;2;
64114;PMS5003;62188;35.640;139.748;2023-08-21T14:08:04;1;1;
64114;PMS5003;62188;35.640;139.748;2023-08-21T14:10:29;3;3;
64114;PMS5003;62188;35.640;139.748;2023-08-21T14:12:55;2;2;
64114;PMS5003;62188;35.640;139.748;2023-08-21T14:15:20;3;2;
64114;PMS5003;62188;35.640;139.748;2023-08-21T14:17:45;2;2;
64114;PMS5003;62188;35.640;139.748;2023-08-21T14:20:11;2;2;
64114;PMS5003;62188;35.640;139.748;2023-08-21T14:22:36;1;1;
64114;PMS5003;62188;35.640;139.748;2023-08-21T14:25:01;3;2;
64114;PMS5003;62188;35.640;139.748;2023-08-21T14:27:26;1;1;
64114;PMS5003;62188;35.640;139.748;2023-08-21T14:29:51;2;2;
64114;PMS5003;62188;35.640;139.748;2023-08-21T14:32:17;2;1;
64114;PMS5003;62188;35.640;139.748;2023-08-21T14:34:42;2;1;
64114;PMS5003;62188;35.640;139.748;2023-08-21T14:37:07;1;1;
64114;PMS5003;62188;35.640;139.748;2023-08-21T14:39:32;3;2;
64114;PMS5003;62188;35.640;139.748;2023-08-21T14:41:58;1;1;
64114;PMS5003;62188;35.640;139.748;2023-08-21T14:44:23;2;2;
64114;PMS5003;62188;35.640;139.748;2023-08-21T14:46:48;3;3;
64114;PMS5003;62188;35.640;139.748;2023-08-21T14:49:13;5;5;
64114;PMS5003;62188;35.640;139.748;2023-08-21T14:51:39;6;5;
64114;PMS5003;62188;35.640;139.748;2023-08-21T14:54:05;5;4;
64114;PMS5003;62188;35.640;139.748;2023-08-21T14:56:29;4;4;
64114;PMS5003;62188;35.640;139.748;2023-08-21T14:58:54;5;5;
64114;PMS5003;62188;35.640;139.748;2023-08-21T15:01:20;4;4;
64114;PMS5003;62188;35.640;139.748;2023-08-21T15:03:45;5;5;
64114;PMS5003;62188;35.640;139.748;2023-08-21T15:06:10;6;5;
64114;PMS5003;62188;35.640;139.748;2023-08-21T15:08:37;4;3;
64114;PMS5003;62188;35.640;139.748;2023-08-21T15:11:01;4;4;
64114;PMS5003;62188;35.640;139.748;2023-08-21T15:13:26;5;4;
64114;PMS5003;62188;35.640;139.748;2023-08-21T15:15:51;6;5;
64114;PMS5003;62188;35.640;139.748;2023-08-21T15:18:17;5;5;
64114;PMS5003;62188;35.640;139.748;2023-08-21T15:20:42;4;4;
64114;PMS5003;62188;35.640;139.748;2023-08-21T15:23:07;5;5;
64114;PMS5003;62188;35.640;139.748;2023-08-21T15:25:33;5;5;
64114;PMS5003;62188;35.640;139.748;2023-08-21T15:27:57;5;4;
64114;PMS5003;62188;35.640;139.748;2023-08-21T15:30:23;4;3;
64114;PMS5003;62188;35.640;139.748;2023-08-21T15:32:48;5;5;
64114;PMS5003;62188;35.640;139.748;2023-08-21T15:35:14;6;6;
64114;PMS5003;62188;35.640;139.748;2023-08-21T15:37:39;7;7;
64114;PMS5003;62188;35.640;139.748;2023-08-21T15:40:05;5;5;
64114;PMS5003;62188;35.640;139.748;2023-08-21T15:42:29;5;4;
64114;PMS5003;62188;35.640;139.748;2023-08-21T15:44:54;4;4;
64114;PMS5003;62188;35.640;139.748;2023-08-21T15:47:20;6;5;
64114;PMS5003;62188;35.640;139.748;2023-08-21T15:49:46;6;6;
64114;PMS5003;62188;35.640;139.748;2023-08-21T15:52:10;6;5;
64114;PMS5003;62188;35.640;139.748;2023-08-21T15:54:35;5;4;
64114;PMS5003;62188;35.640;139.748;2023-08-21T15:57:01;5;4;
64114;PMS5003;62188;35.640;139.748;2023-08-21T15:59:26;5;5;
64114;PMS5003;62188;35.640;139.748;2023-08-21T16:01:52;4;4;
64114;PMS5003;62188;35.640;139.748;2023-08-21T16:04:17;10;9;
64114;PMS5003;62188;35.640;139.748;2023-08-21T16:06:42;5;5;
64114;PMS5003;62188;35.640;139.748;2023-08-21T16:09:08;6;5;
64114;PMS5003;62188;35.640;139.748;2023-08-21T16:11:33;5;5;
64114;PMS5003;62188;35.640;139.748;2023-08-21T16:13:58;5;5;